BAW675 LGPZ-EGLL
Flight info
| Callsign | BAW675 |
|---|---|
| Flight time | N/A |
| Altitude | 24000 |
| Route | MALED1E MALED M127 KRK L53 OLGAT/N0446F360 DCT AIOSA DCT PEVAL/N0447F380 DCT SOTOV DCT KPT DCT KUNOD DCT KRH DCT LIRSU DCT SPI DCT BUB L608 LOGAN LOGAN2H |
| Aircraft | A320/M-SDE3FGIJ1KRWXY/SB1 |
Departure
| Time | 2026-05-06 11:40 |
|---|---|
| Airport | Aktion National Airport (LGPZ) |
Arrival
| Time | N/A |
|---|---|
| Airport | London Heathrow Airport (EGLL) |
| Time | Latitude | Longitude | Altitude | Speed | Heading |
|---|---|---|---|---|---|
| 2026-05-06 11:25 | 38.93038 | 20.77257 | 13 ft | 0 kts | 340° |
| 2026-05-06 11:33 | 38.93031 | 20.77261 | 13 ft | 2 kts | 340° |
| 2026-05-06 11:33 | 38.93014 | 20.77267 | 15 ft | 3 kts | 360° |
| 2026-05-06 11:34 | 38.92996 | 20.77263 | 13 ft | 3 kts | 36° |
| 2026-05-06 11:34 | 38.92986 | 20.77252 | 13 ft | 3 kts | 56° |
| 2026-05-06 11:34 | 38.92978 | 20.77233 | 13 ft | 1 kts | 68° |
| 2026-05-06 11:34 | 38.92976 | 20.77226 | 14 ft | 0 kts | 69° |
| 2026-05-06 11:36 | 38.92978 | 20.77234 | 14 ft | 2 kts | 68° |
| 2026-05-06 11:36 | 38.92985 | 20.77261 | 13 ft | 4 kts | 87° |
| 2026-05-06 11:37 | 38.92980 | 20.77308 | 13 ft | 6 kts | 97° |
| 2026-05-06 11:37 | 38.92973 | 20.77375 | 12 ft | 9 kts | 97° |
| 2026-05-06 11:37 | 38.92936 | 20.77437 | 12 ft | 11 kts | 161° |
| 2026-05-06 11:37 | 38.92878 | 20.77502 | 10 ft | 13 kts | 87° |
| 2026-05-06 11:38 | 38.92913 | 20.77619 | 11 ft | 15 kts | 68° |
| 2026-05-06 11:38 | 38.92926 | 20.77743 | 14 ft | 15 kts | 126° |
| 2026-05-06 11:38 | 38.92839 | 20.77809 | 14 ft | 15 kts | 117° |
| 2026-05-06 11:38 | 38.92865 | 20.77936 | 15 ft | 16 kts | 69° |
| 2026-05-06 11:39 | 38.92908 | 20.78076 | 15 ft | 18 kts | 66° |
| 2026-05-06 11:39 | 38.92997 | 20.78044 | 15 ft | 16 kts | 321° |
| 2026-05-06 11:39 | 38.93007 | 20.77915 | 14 ft | 18 kts | 248° |
| 2026-05-06 11:39 | 38.92910 | 20.77602 | 11 ft | 69 kts | 247° |
| 2026-05-06 11:40 | 38.92652 | 20.76785 | 13 ft | 125 kts | 248° |
| 2026-05-06 11:40 | 38.92291 | 20.75581 | 57 ft | 163 kts | 252° |
| 2026-05-06 11:40 | 38.91907 | 20.74230 | 697 ft | 159 kts | 251° |
| 2026-05-06 11:40 | 38.91750 | 20.72812 | 1273 ft | 168 kts | 275° |
| 2026-05-06 11:41 | 38.91883 | 20.71255 | 1648 ft | 188 kts | 276° |
| 2026-05-06 11:41 | 38.92054 | 20.69488 | 1966 ft | 209 kts | 277° |
| 2026-05-06 11:41 | 38.92243 | 20.67596 | 2645 ft | 214 kts | 277° |
| 2026-05-06 11:41 | 38.92434 | 20.65694 | 3465 ft | 215 kts | 277° |
| 2026-05-06 11:42 | 38.92623 | 20.63771 | 4253 ft | 218 kts | 277° |
| 2026-05-06 11:42 | 38.92840 | 20.61835 | 5053 ft | 220 kts | 284° |
| 2026-05-06 11:42 | 38.93496 | 20.60050 | 5811 ft | 227 kts | 306° |
| 2026-05-06 11:42 | 38.94705 | 20.58586 | 6246 ft | 252 kts | 320° |
| 2026-05-06 11:43 | 38.96120 | 20.57146 | 6778 ft | 269 kts | 321° |
| 2026-05-06 11:43 | 38.97606 | 20.55636 | 7604 ft | 274 kts | 320° |
| 2026-05-06 11:43 | 38.99100 | 20.54113 | 8495 ft | 275 kts | 320° |
| 2026-05-06 11:44 | 39.02119 | 20.51026 | 10302 ft | 279 kts | 320° |
| 2026-05-06 11:44 | 39.03690 | 20.49408 | 10670 ft | 301 kts | 320° |
| 2026-05-06 11:44 | 39.05384 | 20.47657 | 10883 ft | 322 kts | 320° |
| 2026-05-06 11:44 | 39.07161 | 20.45820 | 11419 ft | 331 kts | 320° |
| 2026-05-06 11:45 | 39.08969 | 20.43949 | 12068 ft | 335 kts | 320° |
| 2026-05-06 11:45 | 39.10796 | 20.42056 | 12752 ft | 339 kts | 320° |
| 2026-05-06 11:45 | 39.12642 | 20.40143 | 13432 ft | 342 kts | 320° |
| 2026-05-06 11:45 | 39.14510 | 20.38205 | 14086 ft | 346 kts | 320° |
| 2026-05-06 11:46 | 39.16396 | 20.36244 | 14682 ft | 349 kts | 320° |
| 2026-05-06 11:46 | 39.18278 | 20.34287 | 15264 ft | 352 kts | 320° |
| 2026-05-06 11:46 | 39.20195 | 20.32295 | 15837 ft | 355 kts | 320° |
| 2026-05-06 11:46 | 39.22129 | 20.30285 | 16415 ft | 358 kts | 320° |
| 2026-05-06 11:47 | 39.24084 | 20.28258 | 17002 ft | 361 kts | 320° |
| 2026-05-06 11:47 | 39.26058 | 20.26225 | 17568 ft | 365 kts | 320° |
| 2026-05-06 11:47 | 39.28053 | 20.24176 | 18163 ft | 368 kts | 320° |
| 2026-05-06 11:47 | 39.30049 | 20.22123 | 18683 ft | 371 kts | 320° |
| 2026-05-06 11:48 | 39.32075 | 20.20034 | 19204 ft | 374 kts | 320° |
| 2026-05-06 11:48 | 39.34116 | 20.17930 | 19747 ft | 376 kts | 320° |
| 2026-05-06 11:48 | 39.36173 | 20.15805 | 20314 ft | 378 kts | 320° |
| 2026-05-06 11:48 | 39.38234 | 20.13671 | 20845 ft | 380 kts | 320° |
| 2026-05-06 11:49 | 39.40306 | 20.11519 | 21314 ft | 384 kts | 320° |
| 2026-05-06 11:49 | 39.42398 | 20.09347 | 21791 ft | 387 kts | 320° |
| 2026-05-06 11:49 | 39.44484 | 20.07126 | 22268 ft | 389 kts | 316° |
| 2026-05-06 11:49 | 39.46373 | 20.04671 | 22730 ft | 390 kts | 313° |
| 2026-05-06 11:50 | 39.48286 | 20.02142 | 23202 ft | 393 kts | 313° |
| 2026-05-06 11:50 | 39.50208 | 19.99601 | 23671 ft | 395 kts | 313° |
| 2026-05-06 11:50 | 39.52142 | 19.97046 | 24062 ft | 398 kts | 313° |
| 2026-05-06 11:50 | 39.54087 | 19.94477 | 24445 ft | 400 kts | 313° |
| 2026-05-06 11:51 | 39.56044 | 19.91895 | 24825 ft | 402 kts | 313° |
| 2026-05-06 11:51 | 39.57987 | 19.89329 | 25203 ft | 405 kts | 313° |
| 2026-05-06 11:51 | 39.59968 | 19.86711 | 25577 ft | 407 kts | 313° |
| 2026-05-06 11:51 | 39.61956 | 19.84079 | 25959 ft | 409 kts | 313° |
| 2026-05-06 11:52 | 39.63953 | 19.81430 | 26331 ft | 411 kts | 312° |
| 2026-05-06 11:52 | 39.65959 | 19.78763 | 26699 ft | 413 kts | 312° |
| 2026-05-06 11:52 | 39.67981 | 19.76076 | 27051 ft | 416 kts | 312° |
| 2026-05-06 11:52 | 39.70013 | 19.73374 | 27415 ft | 419 kts | 312° |
| 2026-05-06 11:53 | 39.72027 | 19.70691 | 27784 ft | 421 kts | 312° |
| 2026-05-06 11:53 | 39.74078 | 19.67953 | 28157 ft | 423 kts | 311° |
| 2026-05-06 11:53 | 39.76142 | 19.65202 | 28538 ft | 426 kts | 311° |
| 2026-05-06 11:53 | 39.78217 | 19.62434 | 28895 ft | 428 kts | 311° |
| 2026-05-06 11:54 | 39.80299 | 19.59654 | 29247 ft | 430 kts | 311° |
| 2026-05-06 11:54 | 39.82394 | 19.56851 | 29590 ft | 432 kts | 311° |
| 2026-05-06 11:54 | 39.84491 | 19.54039 | 30036 ft | 432 kts | 311° |
| 2026-05-06 11:54 | 39.86558 | 19.51272 | 30493 ft | 430 kts | 311° |
| 2026-05-06 11:55 | 39.88671 | 19.48444 | 30951 ft | 429 kts | 311° |
| 2026-05-06 11:55 | 39.90742 | 19.45666 | 31420 ft | 427 kts | 311° |
| 2026-05-06 11:55 | 39.92808 | 19.42888 | 31851 ft | 426 kts | 311° |
| 2026-05-06 11:55 | 39.94845 | 19.40145 | 32071 ft | 426 kts | 311° |
| 2026-05-06 11:56 | 39.98954 | 19.34609 | 32110 ft | 423 kts | 311° |
| 2026-05-06 11:56 | 40.03047 | 19.29091 | 32118 ft | 423 kts | 311° |